sensor_id;sensor_type;location;lat;lon;timestamp;temperature;humidity
4431;DHT22;2228;48.140;11.488;2023-09-18T05:24:26;16.00;99.90
4431;DHT22;2228;48.140;11.488;2023-09-18T05:26:53;16.10;99.90
4431;DHT22;2228;48.140;11.488;2023-09-18T05:29:20;16.20;99.90
4431;DHT22;2228;48.140;11.488;2023-09-18T05:31:47;16.20;99.90
4431;DHT22;2228;48.140;11.488;2023-09-18T05:34:14;16.30;99.90
4431;DHT22;2228;48.140;11.488;2023-09-18T05:36:41;16.50;99.90
4431;DHT22;2228;48.140;11.488;2023-09-18T05:39:08;16.60;99.90
4431;DHT22;2228;48.140;11.488;2023-09-18T05:41:40;16.70;99.90
4431;DHT22;2228;48.140;11.488;2023-09-18T05:44:07;16.90;99.90
4431;DHT22;2228;48.140;11.488;2023-09-18T05:46:35;17.10;99.90
4431;DHT22;2228;48.140;11.488;2023-09-18T05:49:02;17.20;99.90
4431;DHT22;2228;48.140;11.488;2023-09-18T05:51:30;17.40;99.90
4431;DHT22;2228;48.140;11.488;2023-09-18T05:53:58;17.70;99.90
4431;DHT22;2228;48.140;11.488;2023-09-18T05:56:27;17.80;99.90
4431;DHT22;2228;48.140;11.488;2023-09-18T05:58:55;18.00;99.90
4431;DHT22;2228;48.140;11.488;2023-09-18T06:01:22;18.20;72.20
4431;DHT22;2228;48.140;11.488;2023-09-18T06:03:50;18.50;1.00
4431;DHT22;2228;48.140;11.488;2023-09-18T06:06:17;18.60;1.00
4431;DHT22;2228;48.140;11.488;2023-09-18T06:08:44;18.50;1.00
4431;DHT22;2228;48.140;11.488;2023-09-18T06:11:11;18.50;1.00
4431;DHT22;2228;48.140;11.488;2023-09-18T06:13:38;18.60;1.00
4431;DHT22;2228;48.140;11.488;2023-09-18T06:16:07;18.70;1.00
4431;DHT22;2228;48.140;11.488;2023-09-18T06:18:34;18.90;1.00
4431;DHT22;2228;48.140;11.488;2023-09-18T06:21:03;19.20;1.00
4431;DHT22;2228;48.140;11.488;2023-09-18T06:23:30;19.40;1.00
4431;DHT22;2228;48.140;11.488;2023-09-18T06:25:59;19.30;1.00
4431;DHT22;2228;48.140;11.488;2023-09-18T06:28:27;19.40;1.00
4431;DHT22;2228;48.140;11.488;2023-09-18T06:30:54;19.30;1.00
4431;DHT22;2228;48.140;11.488;2023-09-18T06:33:23;19.10;1.00
4431;DHT22;2228;48.140;11.488;2023-09-18T06:35:50;19.20;1.00
4431;DHT22;2228;48.140;11.488;2023-09-18T06:38:17;19.30;1.00
4431;DHT22;2228;48.140;11.488;2023-09-18T06:40:46;19.30;1.00
4431;DHT22;2228;48.140;11.488;2023-09-18T06:43:13;19.70;1.00
4431;DHT22;2228;48.140;11.488;2023-09-18T06:45:40;19.50;1.00
4431;DHT22;2228;48.140;11.488;2023-09-18T06:48:07;19.80;1.00
4431;DHT22;2228;48.140;11.488;2023-09-18T06:50:35;19.90;1.00
4431;DHT22;2228;48.140;11.488;2023-09-18T06:53:04;20.00;1.00
4431;DHT22;2228;48.140;11.488;2023-09-18T06:55:31;20.20;1.00
4431;DHT22;2228;48.140;11.488;2023-09-18T06:57:59;21.00;1.00
4431;DHT22;2228;48.140;11.488;2023-09-18T07:00:27;20.20;1.00
4431;DHT22;2228;48.140;11.488;2023-09-18T07:02:54;20.40;1.00
4431;DHT22;2228;48.140;11.488;2023-09-18T07:05:21;20.40;1.00
4431;DHT22;2228;48.140;11.488;2023-09-18T07:07:49;20.60;1.00
4431;DHT22;2228;48.140;11.488;2023-09-18T07:10:16;21.10;1.00
4431;DHT22;2228;48.140;11.488;2023-09-18T07:12:44;21.40;1.00
4431;DHT22;2228;48.140;11.488;2023-09-18T07:15:11;21.70;1.00
4431;DHT22;2228;48.140;11.488;2023-09-18T07:17:38;21.80;1.00
4431;DHT22;2228;48.140;11.488;2023-09-18T07:20:06;22.10;1.00
4431;DHT22;2228;48.140;11.488;2023-09-18T07:22:39;22.40;1.00
4431;DHT22;2228;48.140;11.488;2023-09-18T07:25:08;22.70;1.00
4431;DHT22;2228;48.140;11.488;2023-09-18T07:27:35;22.90;1.00
4431;DHT22;2228;48.140;11.488;2023-09-18T07:30:06;22.80;1.00
4431;DHT22;2228;48.140;11.488;2023-09-18T07:32:33;22.50;1.00
4431;DHT22;2228;48.140;11.488;2023-09-18T07:35:00;22.40;1.00
4431;DHT22;2228;48.140;11.488;2023-09-18T07:37:27;22.40;1.00
4431;DHT22;2228;48.140;11.488;2023-09-18T07:39:54;22.90;1.00
4431;DHT22;2228;48.140;11.488;2023-09-18T07:42:25;23.00;1.00
4431;DHT22;2228;48.140;11.488;2023-09-18T07:44:52;23.40;1.00
4431;DHT22;2228;48.140;11.488;2023-09-18T07:47:20;23.30;1.00
4431;DHT22;2228;48.140;11.488;2023-09-18T07:49:48;23.40;1.00
4431;DHT22;2228;48.140;11.488;2023-09-18T07:52:16;23.30;1.00
4431;DHT22;2228;48.140;11.488;2023-09-18T07:54:44;23.30;1.00
4431;DHT22;2228;48.140;11.488;2023-09-18T07:57:11;23.50;1.00
4431;DHT22;2228;48.140;11.488;2023-09-18T07:59:40;24.00;1.00
4431;DHT22;2228;48.140;11.488;2023-09-18T08:02:08;24.00;1.00
4431;DHT22;2228;48.140;11.488;2023-09-18T08:04:36;24.20;1.00
4431;DHT22;2228;48.140;11.488;2023-09-18T08:07:03;24.60;1.00
4431;DHT22;2228;48.140;11.488;2023-09-18T08:09:31;25.00;1.00
4431;DHT22;2228;48.140;11.488;2023-09-18T08:12:02;25.40;1.00
4431;DHT22;2228;48.140;11.488;2023-09-18T08:14:29;25.40;1.00
4431;DHT22;2228;48.140;11.488;2023-09-18T08:16:58;25.30;1.00
4431;DHT22;2228;48.140;11.488;2023-09-18T08:19:25;25.00;1.00
4431;DHT22;2228;48.140;11.488;2023-09-18T08:21:53;24.70;1.00
4431;DHT22;2228;48.140;11.488;2023-09-18T08:24:21;24.40;1.00
4431;DHT22;2228;48.140;11.488;2023-09-18T08:26:49;24.40;1.00
4431;DHT22;2228;48.140;11.488;2023-09-18T08:29:16;24.30;1.00
4431;DHT22;2228;48.140;11.488;2023-09-18T08:31:43;24.30;1.00
4431;DHT22;2228;48.140;11.488;2023-09-18T08:34:12;24.30;1.00
4431;DHT22;2228;48.140;11.488;2023-09-18T08:36:39;24.00;1.00
4431;DHT22;2228;48.140;11.488;2023-09-18T08:39:06;23.70;1.00
4431;DHT22;2228;48.140;11.488;2023-09-18T08:41:33;23.50;1.00
4431;DHT22;2228;48.140;11.488;2023-09-18T08:44:07;23.60;1.00
4431;DHT22;2228;48.140;11.488;2023-09-18T08:46:36;23.40;1.00
4431;DHT22;2228;48.140;11.488;2023-09-18T08:49:04;23.50;1.00
4431;DHT22;2228;48.140;11.488;2023-09-18T08:51:34;23.60;1.00
4431;DHT22;2228;48.140;11.488;2023-09-18T08:54:03;23.50;1.00
4431;DHT22;2228;48.140;11.488;2023-09-18T08:56:31;23.20;1.00
4431;DHT22;2228;48.140;11.488;2023-09-18T08:59:00;23.10;1.00
4431;DHT22;2228;48.140;11.488;2023-09-18T09:01:27;23.20;1.00
4431;DHT22;2228;48.140;11.488;2023-09-18T09:03:54;22.90;1.00
4431;DHT22;2228;48.140;11.488;2023-09-18T09:06:21;22.80;1.00
4431;DHT22;2228;48.140;11.488;2023-09-18T09:08:51;22.90;1.00
4431;DHT22;2228;48.140;11.488;2023-09-18T09:11:18;23.00;1.00
4431;DHT22;2228;48.140;11.488;2023-09-18T09:13:46;23.10;1.00
4431;DHT22;2228;48.140;11.488;2023-09-18T09:16:13;23.20;1.00
4431;DHT22;2228;48.140;11.488;2023-09-18T13:21:50;17.70;1.00
4431;DHT22;2228;48.140;11.488;2023-09-18T13:24:27;17.80;1.00
4431;DHT22;2228;48.140;11.488;2023-09-18T13:26:55;17.80;1.00
4431;DHT22;2228;48.140;11.488;2023-09-18T13:29:23;17.80;1.00
4431;DHT22;2228;48.140;11.488;2023-09-18T13:31:50;17.70;1.00
4431;DHT22;2228;48.140;11.488;2023-09-18T13:34:18;17.70;57.30
4431;DHT22;2228;48.140;11.488;2023-09-18T13:36:46;18.20;20.40
4431;DHT22;2228;48.140;11.488;2023-09-18T13:39:15;17.90;1.00
4431;DHT22;2228;48.140;11.488;2023-09-18T13:41:44;18.00;1.00
4431;DHT22;2228;48.140;11.488;2023-09-18T13:44:11;18.20;1.00
4431;DHT22;2228;48.140;11.488;2023-09-18T13:46:38;18.10;1.00
4431;DHT22;2228;48.140;11.488;2023-09-18T13:49:06;18.10;1.00
4431;DHT22;2228;48.140;11.488;2023-09-18T13:51:33;18.00;24.80
4431;DHT22;2228;48.140;11.488;2023-09-18T13:54:01;18.30;1.00
4431;DHT22;2228;48.140;11.488;2023-09-18T13:56:30;18.40;1.00
4431;DHT22;2228;48.140;11.488;2023-09-18T13:58:58;18.70;1.00
4431;DHT22;2228;48.140;11.488;2023-09-18T14:01:25;19.30;1.00
4431;DHT22;2228;48.140;11.488;2023-09-18T14:03:54;19.30;1.00
4431;DHT22;2228;48.140;11.488;2023-09-18T14:06:21;19.50;1.00
4431;DHT22;2228;48.140;11.488;2023-09-18T14:08:48;19.70;1.00
4431;DHT22;2228;48.140;11.488;2023-09-18T14:11:15;20.00;1.00
4431;DHT22;2228;48.140;11.488;2023-09-18T14:13:45;20.30;99.90
4431;DHT22;2228;48.140;11.488;2023-09-18T14:16:13;20.50;99.90
4431;DHT22;2228;48.140;11.488;2023-09-18T14:18:40;20.70;99.90
4431;DHT22;2228;48.140;11.488;2023-09-18T14:21:08;20.60;99.90
4431;DHT22;2228;48.140;11.488;2023-09-18T14:23:35;21.00;99.90
4431;DHT22;2228;48.140;11.488;2023-09-18T14:26:02;21.10;99.90
4431;DHT22;2228;48.140;11.488;2023-09-18T14:28:29;21.60;99.90
4431;DHT22;2228;48.140;11.488;2023-09-18T14:31:02;21.80;99.90
4431;DHT22;2228;48.140;11.488;2023-09-18T14:33:29;21.90;16.70
4431;DHT22;2228;48.140;11.488;2023-09-18T14:35:57;21.90;45.90
4431;DHT22;2228;48.140;11.488;2023-09-18T14:38:24;22.10;90.60
4431;DHT22;2228;48.140;11.488;2023-09-18T14:40:51;22.00;43.10
4431;DHT22;2228;48.140;11.488;2023-09-18T14:43:18;22.20;1.00
4431;DHT22;2228;48.140;11.488;2023-09-18T14:45:45;22.10;1.00
4431;DHT22;2228;48.140;11.488;2023-09-18T14:48:16;22.10;1.00
4431;DHT22;2228;48.140;11.488;2023-09-18T14:50:56;22.10;1.00
4431;DHT22;2228;48.140;11.488;2023-09-18T14:53:37;21.90;1.00
4431;DHT22;2228;48.140;11.488;2023-09-18T14:56:05;21.60;1.00
4431;DHT22;2228;48.140;11.488;2023-09-18T14:58:32;21.30;1.00
4431;DHT22;2228;48.140;11.488;2023-09-18T15:01:01;21.40;93.70
4431;DHT22;2228;48.140;11.488;2023-09-18T15:03:31;21.10;99.90
4431;DHT22;2228;48.140;11.488;2023-09-18T15:05:59;21.10;99.90
4431;DHT22;2228;48.140;11.488;2023-09-18T15:08:36;21.10;78.30
4431;DHT22;2228;48.140;11.488;2023-09-18T15:11:05;20.70;93.60
4431;DHT22;2228;48.140;11.488;2023-09-18T15:13:43;20.90;92.30
4431;DHT22;2228;48.140;11.488;2023-09-18T15:16:27;20.60;99.90
4431;DHT22;2228;48.140;11.488;2023-09-18T15:18:57;20.50;99.90
4431;DHT22;2228;48.140;11.488;2023-09-18T15:21:27;20.40;99.90
4431;DHT22;2228;48.140;11.488;2023-09-18T15:23:54;20.20;99.90
4431;DHT22;2228;48.140;11.488;2023-09-18T15:26:23;20.10;99.90
4431;DHT22;2228;48.140;11.488;2023-09-18T15:28:50;20.20;99.90
4431;DHT22;2228;48.140;11.488;2023-09-18T15:31:17;19.50;99.90
4431;DHT22;2228;48.140;11.488;2023-09-18T15:33:45;19.50;99.90
4431;DHT22;2228;48.140;11.488;2023-09-18T15:36:15;19.40;99.90
4431;DHT22;2228;48.140;11.488;2023-09-18T15:38:42;19.10;99.90
4431;DHT22;2228;48.140;11.488;2023-09-18T15:41:09;19.00;99.90
4431;DHT22;2228;48.140;11.488;2023-09-18T15:43:38;19.10;99.90
4431;DHT22;2228;48.140;11.488;2023-09-18T15:46:05;19.10;99.90
4431;DHT22;2228;48.140;11.488;2023-09-18T15:48:32;19.20;99.90
4431;DHT22;2228;48.140;11.488;2023-09-18T15:50:59;19.30;99.90
4431;DHT22;2228;48.140;11.488;2023-09-18T15:53:29;19.30;99.90
4431;DHT22;2228;48.140;11.488;2023-09-18T15:55:55;19.40;99.90
4431;DHT22;2228;48.140;11.488;2023-09-18T15:58:23;19.00;99.90
4431;DHT22;2228;48.140;11.488;2023-09-18T16:00:50;19.20;99.90
4431;DHT22;2228;48.140;11.488;2023-09-18T16:03:17;19.30;99.90
4431;DHT22;2228;48.140;11.488;2023-09-18T16:05:44;19.30;99.90
4431;DHT22;2228;48.140;11.488;2023-09-18T16:08:17;19.60;99.90
4431;DHT22;2228;48.140;11.488;2023-09-18T16:10:45;20.00;99.90
4431;DHT22;2228;48.140;11.488;2023-09-18T16:13:12;20.40;99.90
4431;DHT22;2228;48.140;11.488;2023-09-18T16:15:40;20.80;48.60
4431;DHT22;2228;48.140;11.488;2023-09-18T16:18:09;21.00;1.00
4431;DHT22;2228;48.140;11.488;2023-09-18T16:20:36;21.30;1.00
4431;DHT22;2228;48.140;11.488;2023-09-18T16:23:03;21.20;1.00
4431;DHT22;2228;48.140;11.488;2023-09-18T16:25:30;20.90;1.00
4431;DHT22;2228;48.140;11.488;2023-09-18T16:27:58;20.80;1.00
4431;DHT22;2228;48.140;11.488;2023-09-18T16:30:26;20.60;1.00
4431;DHT22;2228;48.140;11.488;2023-09-18T16:32:54;20.80;1.00
4431;DHT22;2228;48.140;11.488;2023-09-18T16:35:21;20.90;1.00
4431;DHT22;2228;48.140;11.488;2023-09-18T16:37:48;21.00;1.00
4431;DHT22;2228;48.140;11.488;2023-09-18T16:40:15;21.20;1.00
4431;DHT22;2228;48.140;11.488;2023-09-18T16:42:42;21.10;1.00
4431;DHT22;2228;48.140;11.488;2023-09-18T16:45:12;20.90;1.00
4431;DHT22;2228;48.140;11.488;2023-09-18T16:47:40;20.80;1.00
4431;DHT22;2228;48.140;11.488;2023-09-18T16:50:07;20.60;1.00
4431;DHT22;2228;48.140;11.488;2023-09-18T16:52:35;20.30;1.00
4431;DHT22;2228;48.140;11.488;2023-09-18T16:55:02;20.10;1.00
4431;DHT22;2228;48.140;11.488;2023-09-18T16:57:31;20.10;1.00
4431;DHT22;2228;48.140;11.488;2023-09-18T17:00:00;19.90;1.00
4431;DHT22;2228;48.140;11.488;2023-09-18T17:02:28;20.50;1.00
4431;DHT22;2228;48.140;11.488;2023-09-18T17:04:55;19.70;1.00
4431;DHT22;2228;48.140;11.488;2023-09-18T17:07:23;19.40;1.00
4431;DHT22;2228;48.140;11.488;2023-09-18T17:09:50;19.30;18.80
4431;DHT22;2228;48.140;11.488;2023-09-18T17:12:17;19.00;27.80
4431;DHT22;2228;48.140;11.488;2023-09-18T17:14:45;19.00;59.20
4431;DHT22;2228;48.140;11.488;2023-09-18T17:17:12;18.80;91.60
4431;DHT22;2228;48.140;11.488;2023-09-18T17:19:40;18.80;73.90
4431;DHT22;2228;48.140;11.488;2023-09-18T17:22:08;18.60;97.50
4431;DHT22;2228;48.140;11.488;2023-09-18T17:24:35;18.60;99.90
4431;DHT22;2228;48.140;11.488;2023-09-18T17:27:04;18.50;99.90
4431;DHT22;2228;48.140;11.488;2023-09-18T17:29:33;19.00;99.90
4431;DHT22;2228;48.140;11.488;2023-09-18T17:32:01;18.90;99.90
4431;DHT22;2228;48.140;11.488;2023-09-18T17:34:30;18.20;99.90
4431;DHT22;2228;48.140;11.488;2023-09-18T17:36:58;18.10;99.90
4431;DHT22;2228;48.140;11.488;2023-09-18T17:39:39;18.00;99.90
4431;DHT22;2228;48.140;11.488;2023-09-18T17:42:07;17.90;99.90
4431;DHT22;2228;48.140;11.488;2023-09-18T17:44:35;17.90;99.90
4431;DHT22;2228;48.140;11.488;2023-09-18T17:47:02;17.90;99.90
4431;DHT22;2228;48.140;11.488;2023-09-18T17:49:30;17.80;99.90
4431;DHT22;2228;48.140;11.488;2023-09-18T17:51:59;18.50;99.90
4431;DHT22;2228;48.140;11.488;2023-09-18T17:54:29;17.70;99.90
4431;DHT22;2228;48.140;11.488;2023-09-18T17:56:56;18.00;99.90
4431;DHT22;2228;48.140;11.488;2023-09-18T17:59:23;17.60;99.90
4431;DHT22;2228;48.140;11.488;2023-09-18T18:01:50;17.80;99.90
4431;DHT22;2228;48.140;11.488;2023-09-18T18:04:17;17.60;99.90
4431;DHT22;2228;48.140;11.488;2023-09-18T18:06:44;17.70;99.90
4431;DHT22;2228;48.140;11.488;2023-09-18T18:09:12;17.60;99.90
4431;DHT22;2228;48.140;11.488;2023-09-18T18:11:39;17.50;99.90
4431;DHT22;2228;48.140;11.488;2023-09-18T18:14:06;18.20;99.90
4431;DHT22;2228;48.140;11.488;2023-09-18T18:16:34;17.70;99.90
4431;DHT22;2228;48.140;11.488;2023-09-18T18:19:01;17.70;99.90
4431;DHT22;2228;48.140;11.488;2023-09-18T18:21:30;18.00;99.90
4431;DHT22;2228;48.140;11.488;2023-09-18T18:24:01;17.70;99.90
4431;DHT22;2228;48.140;11.488;2023-09-18T18:26:34;17.60;99.90
4431;DHT22;2228;48.140;11.488;2023-09-18T18:29:02;17.90;99.90
4431;DHT22;2228;48.140;11.488;2023-09-18T18:31:29;17.60;99.90
4431;DHT22;2228;48.140;11.488;2023-09-18T18:33:58;17.60;99.90
4431;DHT22;2228;48.140;11.488;2023-09-18T18:36:27;17.80;99.90
4431;DHT22;2228;48.140;11.488;2023-09-18T18:38:54;17.40;99.90
4431;DHT22;2228;48.140;11.488;2023-09-18T18:41:22;17.50;99.90
4431;DHT22;2228;48.140;11.488;2023-09-18T18:43:52;17.60;99.90
4431;DHT22;2228;48.140;11.488;2023-09-18T18:46:19;17.70;99.90
4431;DHT22;2228;48.140;11.488;2023-09-18T18:48:46;17.60;99.90
4431;DHT22;2228;48.140;11.488;2023-09-18T18:51:14;17.60;99.90
4431;DHT22;2228;48.140;11.488;2023-09-18T18:53:44;17.70;99.90
4431;DHT22;2228;48.140;11.488;2023-09-18T18:56:11;18.00;99.90
4431;DHT22;2228;48.140;11.488;2023-09-18T18:58:40;17.50;99.90
4431;DHT22;2228;48.140;11.488;2023-09-18T19:01:09;17.60;99.90
4431;DHT22;2228;48.140;11.488;2023-09-18T19:03:36;16.80;99.90
4431;DHT22;2228;48.140;11.488;2023-09-18T19:06:03;17.70;99.90
4431;DHT22;2228;48.140;11.488;2023-09-18T19:08:32;17.50;99.90
4431;DHT22;2228;48.140;11.488;2023-09-18T19:11:00;17.60;99.90
4431;DHT22;2228;48.140;11.488;2023-09-18T19:13:29;17.70;99.90
4431;DHT22;2228;48.140;11.488;2023-09-18T19:15:57;17.60;99.90
4431;DHT22;2228;48.140;11.488;2023-09-18T19:18:27;17.80;99.90
4431;DHT22;2228;48.140;11.488;2023-09-18T19:20:58;17.20;99.90
4431;DHT22;2228;48.140;11.488;2023-09-18T19:23:29;17.60;99.90
4431;DHT22;2228;48.140;11.488;2023-09-18T19:25:56;17.70;99.90
4431;DHT22;2228;48.140;11.488;2023-09-18T19:28:25;17.60;99.90
4431;DHT22;2228;48.140;11.488;2023-09-18T19:30:55;17.60;99.90
